Time;durP1;ratioP1;P1;durP2;ratioP2;P2;SDS_P1;SDS_P2;PMS_P1;PMS_P2;Temp;Humidity;BMP_temperature;BMP_pressure;BME280_temperature;BME280_humidity;BME280_pressure;Samples;Min_cycle;Max_cycle;Signal;HPM_P1;HPM_P2
2021/05/13 00:02:19;;;;;;;6.85;0.98;;;;;;;6.65;100.00;99099.28;4995350;28;20040;-82
2021/05/13 00:05:23;;;;;;;0.82;0.82;;;;;;;6.68;100.00;99093.59;4993268;28;20057;-82
2021/05/13 00:08:27;;;;;;;2.03;1.13;;;;;;;6.69;100.00;99094.38;4992646;28;20052;-82
2021/05/13 00:11:33;;;;;;;0.80;0.70;;;;;;;6.71;100.00;99097.44;4995535;28;20060;-80
2021/05/13 00:14:36;;;;;;;1.05;0.60;;;;;;;6.71;100.00;99087.09;4995790;28;20896;-81
2021/05/13 00:17:41;;;;;;;0.60;0.60;;;;;;;6.77;100.00;99090.03;4992833;28;20052;-82
2021/05/13 00:20:45;;;;;;;1.15;1.15;;;;;;;6.77;100.00;99088.03;4993158;28;20053;-81
2021/05/13 00:23:49;;;;;;;0.85;0.85;;;;;;;6.77;100.00;99085.25;4993733;28;20049;-82
2021/05/13 00:26:58;;;;;;;1.50;1.00;;;;;;;6.80;100.00;99078.00;5003283;28;20688;-82
2021/05/13 00:30:06;;;;;;;7.95;1.15;;;;;;;6.79;100.00;99084.78;4992494;28;20056;-82
2021/05/13 00:33:11;;;;;;;2.08;0.75;;;;;;;6.84;100.00;99084.16;4991709;28;20628;-81
2021/05/13 00:36:15;;;;;;;0.57;0.57;;;;;;;6.84;100.00;99079.38;4993367;28;20057;-81
2021/05/13 00:39:19;;;;;;;3.13;0.90;;;;;;;6.90;100.00;99082.28;4993216;28;20053;-82
2021/05/13 00:42:22;;;;;;;0.70;0.70;;;;;;;6.93;100.00;99084.09;4994021;28;20835;-82
2021/05/13 00:45:27;;;;;;;0.65;0.65;;;;;;;6.92;100.00;99079.03;4992518;28;20048;-82
2021/05/13 00:48:35;;;;;;;3.35;0.82;;;;;;;6.97;100.00;99078.38;4993087;28;20048;-81
2021/05/13 00:51:38;;;;;;;3.25;1.20;;;;;;;7.00;100.00;99077.44;4994191;28;20064;-81
2021/05/13 00:54:42;;;;;;;1.85;0.80;;;;;;;6.99;100.00;99073.16;4994326;28;20538;-81
2021/05/13 00:57:50;;;;;;;3.55;1.08;;;;;;;7.00;100.00;99069.13;4994165;28;20052;-82
2021/05/13 01:04:01;;;;;;;2.90;0.98;;;;;;;7.04;100.00;99067.72;4993619;28;20049;-81
2021/05/13 01:07:05;;;;;;;0.82;0.82;;;;;;;7.08;100.00;99068.31;4992446;28;21248;-81
2021/05/13 01:10:08;;;;;;;0.88;0.68;;;;;;;7.14;100.00;99074.75;5008184;28;20412;-82
2021/05/13 01:13:17;;;;;;;2.00;0.93;;;;;;;7.17;100.00;99062.72;5030087;28;20053;-82
2021/05/13 01:19:57;;;;;;;2.58;0.77;;;;;;;7.21;100.00;99066.06;5035912;28;20064;-82
2021/05/13 01:23:02;;;;;;;0.90;0.90;;;;;;;7.24;100.00;99067.91;5016915;28;20053;-83
2021/05/13 01:26:06;;;;;;;4.22;1.08;;;;;;;7.24;100.00;99065.13;5011821;28;20052;-84
2021/05/13 01:29:10;;;;;;;0.55;0.55;;;;;;;7.27;100.00;99061.44;5022806;28;20052;-79
2021/05/13 01:32:15;;;;;;;2.15;1.02;;;;;;;7.28;100.00;99057.41;5012671;28;20065;-78
2021/05/13 01:35:19;;;;;;;0.50;0.50;;;;;;;7.31;100.00;99062.03;5011203;28;20057;-78
2021/05/13 01:38:24;;;;;;;3.45;1.00;;;;;;;7.33;100.00;99056.00;5011950;28;20053;-78
2021/05/13 01:41:27;;;;;;;2.25;1.15;;;;;;;7.32;100.00;99055.22;5011369;28;20526;-79
2021/05/13 01:44:31;;;;;;;2.78;1.15;;;;;;;7.33;100.00;99054.00;5011228;28;20420;-79
2021/05/13 01:47:36;;;;;;;1.60;0.73;;;;;;;7.32;100.00;99052.47;5011078;28;20528;-79
2021/05/13 01:50:39;;;;;;;1.42;0.80;;;;;;;7.33;100.00;99054.00;5010924;28;20518;-79
2021/05/13 01:53:44;;;;;;;22.52;1.13;;;;;;;7.34;100.00;99049.22;5010097;28;20412;-79
2021/05/13 01:56:47;;;;;;;4.03;0.80;;;;;;;7.34;100.00;99044.44;5010305;28;20060;-79
2021/05/13 01:59:51;;;;;;;2.28;1.00;;;;;;;7.35;100.00;99048.75;5010599;28;20072;-78
2021/05/13 02:02:54;;;;;;;3.33;1.13;;;;;;;7.38;100.00;99047.81;5021276;28;20530;-79
2021/05/13 02:05:58;;;;;;;3.85;0.73;;;;;;;7.38;100.00;99052.59;5010960;28;20057;-79
2021/05/13 02:09:02;;;;;;;1.50;0.82;;;;;;;7.34;100.00;99044.44;5010643;28;20053;-82
2021/05/13 02:12:06;;;;;;;1.08;0.50;;;;;;;7.33;100.00;99054.00;5010427;28;20057;-81
2021/05/13 02:15:14;;;;;;;1.23;0.55;;;;;;;7.31;100.00;99045.41;5010737;28;20053;-81
2021/05/13 02:18:20;;;;;;;0.73;0.43;;;;;;;7.32;100.00;99046.91;5009943;28;20056;-81
2021/05/13 02:21:24;;;;;;;9.63;1.33;;;;;;;7.29;100.00;99044.34;5009773;28;20052;-82
2021/05/13 02:24:27;;;;;;;9.55;0.90;;;;;;;7.26;100.00;99048.03;5009750;28;20069;-81
2021/05/13 02:27:31;;;;;;;6.75;1.20;;;;;;;7.27;100.00;99044.81;5010674;28;20052;-81
2021/05/13 02:30:35;;;;;;;2.08;1.67;;;;;;;7.25;100.00;99046.53;5010580;28;20527;-81
2021/05/13 02:33:39;;;;;;;3.17;0.93;;;;;;;7.26;100.00;99034.97;5009672;28;20061;-81
2021/05/13 02:36:43;;;;;;;2.63;1.20;;;;;;;7.23;100.00;99049.78;5010552;28;20061;-81
2021/05/13 02:39:47;;;;;;;2.72;0.80;;;;;;;7.22;100.00;99042.69;5010362;28;20065;-81
2021/05/13 02:42:51;;;;;;;4.38;1.10;;;;;;;7.19;100.00;99046.41;5010212;28;20053;-81
2021/05/13 02:45:54;;;;;;;1.88;0.88;;;;;;;7.21;100.00;99048.72;5010413;28;20527;-78
2021/05/13 02:48:58;;;;;;;8.20;1.30;;;;;;;7.20;100.00;99041.63;5010259;28;20053;-80
2021/05/13 02:52:02;;;;;;;2.58;1.52;;;;;;;7.18;100.00;99041.34;5014261;28;20412;-81
2021/05/13 02:55:09;;;;;;;6.20;1.55;;;;;;;7.17;100.00;99040.56;5013719;28;20052;-78
2021/05/13 02:58:13;;;;;;;3.10;1.45;;;;;;;7.14;100.00;99047.06;5014143;28;20064;-78
2021/05/13 03:01:27;;;;;;;2.55;1.45;;;;;;;7.19;100.00;99048.44;5013345;28;20053;-78
2021/05/13 03:04:30;;;;;;;3.10;0.95;;;;;;;7.20;100.00;99055.47;5013587;28;20412;-78
2021/05/13 03:07:39;;;;;;;1.48;1.40;;;;;;;7.24;100.00;99051.28;5013984;28;20064;-78
2021/05/13 03:10:44;;;;;;;1.08;0.77;;;;;;;7.29;100.00;99052.66;5013477;28;20065;-79
2021/05/13 03:13:52;;;;;;;1.17;0.73;;;;;;;7.30;100.00;99059.69;5021036;28;20057;-81
2021/05/13 03:16:55;;;;;;;5.40;1.08;;;;;;;7.29;100.00;99058.97;5019941;28;20522;-81
2021/05/13 03:20:00;;;;;;;3.15;1.70;;;;;;;7.35;100.00;99051.53;5013190;28;20057;-82
2021/05/13 03:23:05;;;;;;;3.72;1.73;;;;;;;7.43;100.00;99055.47;5013271;28;20535;-81
2021/05/13 03:26:09;;;;;;;8.38;1.92;;;;;;;7.45;100.00;99061.28;5013075;28;20057;-77
2021/05/13 03:29:13;;;;;;;5.65;2.25;;;;;;;7.46;100.00;99051.75;5012907;28;20566;-78
2021/05/13 03:32:17;;;;;;;5.20;1.75;;;;;;;7.42;100.00;99040.09;5012969;28;20069;-79
2021/05/13 03:35:20;;;;;;;1.80;1.45;;;;;;;7.40;100.00;99048.09;5013487;28;20519;-79
2021/05/13 03:38:24;;;;;;;2.95;2.50;;;;;;;7.38;100.00;99047.81;5013353;28;20053;-79
2021/05/13 03:41:27;;;;;;;3.85;1.48;;;;;;;7.35;100.00;99045.97;5013229;28;20061;-79
2021/05/13 03:44:31;;;;;;;3.78;1.58;;;;;;;7.35;100.00;99048.75;5013251;28;20053;-79
2021/05/13 03:47:35;;;;;;;3.30;1.73;;;;;;;7.38;100.00;99039.50;5013222;28;20065;-79
2021/05/13 03:50:39;;;;;;;3.47;1.17;;;;;;;7.40;100.00;99048.09;5012952;28;20057;-79
2021/05/13 03:53:43;;;;;;;3.05;1.35;;;;;;;7.39;100.00;99046.56;5012480;28;20069;-79
2021/05/13 03:56:46;;;;;;;1.67;0.80;;;;;;;7.38;100.00;99053.34;5020041;28;20060;-78
2021/05/13 03:59:53;;;;;;;5.20;1.35;;;;;;;7.39;100.00;99043.78;5013663;28;20065;-78
2021/05/13 04:02:56;;;;;;;1.02;0.55;;;;;;;7.40;100.00;99042.56;5012242;28;20795;-78
2021/05/13 04:06:00;;;;;;;2.08;0.90;;;;;;;7.44;100.00;99036.84;5012726;28;20546;-78
2021/05/13 04:09:08;;;;;;;0.65;0.65;;;;;;;7.45;100.00;99038.38;5012639;28;20060;-78
2021/05/13 04:12:12;;;;;;;2.85;1.08;;;;;;;7.49;100.00;99031.38;5012835;28;20065;-78
2021/05/13 04:15:15;;;;;;;4.22;1.60;;;;;;;7.53;100.00;99037.53;5012302;28;20057;-78
2021/05/13 04:18:18;;;;;;;2.17;0.75;;;;;;;7.56;100.00;99035.81;5012075;28;20057;-78
2021/05/13 04:21:22;;;;;;;1.80;1.33;;;;;;;7.64;100.00;99034.94;5011808;28;20045;-78
2021/05/13 04:24:25;;;;;;;2.55;1.35;;;;;;;7.75;100.00;99033.66;5012317;28;20061;-77
2021/05/13 04:27:29;;;;;;;1.50;0.95;;;;;;;7.85;100.00;99033.09;5012330;28;20056;-77
2021/05/13 04:30:32;;;;;;;1.63;1.52;;;;;;;7.91;100.00;99027.63;5012251;28;20053;-78
2021/05/13 04:33:36;;;;;;;4.30;1.85;;;;;;;7.91;100.00;99030.41;5012070;28;20061;-77
2021/05/13 04:36:39;;;;;;;7.53;2.30;;;;;;;7.89;100.00;99028.09;5011287;28;20068;-79
2021/05/13 04:39:43;;;;;;;2.05;1.05;;;;;;;7.88;100.00;99025.81;5011945;28;20445;-79
2021/05/13 04:42:46;;;;;;;8.55;1.40;;;;;;;7.86;100.00;99033.84;5012039;28;20057;-79
2021/05/13 04:45:50;;;;;;;6.28;1.77;;;;;;;7.86;100.00;99034.59;5011978;28;20061;-78
2021/05/13 04:49:15;;;;;;;3.85;1.80;;;;;;;7.91;100.00;99030.41;5011156;28;20064;-78
2021/05/13 04:52:18;;;;;;;2.47;1.75;;;;;;;7.94;100.00;99029.44;5010888;28;20061;-77
2021/05/13 04:55:22;;;;;;;2.50;1.45;;;;;;;7.95;100.00;99026.19;5010030;28;20061;-78
2021/05/13 04:58:26;;;;;;;3.13;1.67;;;;;;;7.98;100.00;99024.47;5010164;28;20061;-78
2021/05/13 05:01:29;;;;;;;3.92;1.80;;;;;;;7.99;100.00;99026.03;5011482;28;20049;-77
2021/05/13 05:04:33;;;;;;;5.65;1.60;;;;;;;8.03;100.00;99021.81;5011452;28;20057;-81
2021/05/13 05:07:36;;;;;;;2.63;1.38;;;;;;;8.11;100.00;99033.28;5010431;28;20412;-81
2021/05/13 05:10:40;;;;;;;4.43;1.63;;;;;;;8.14;100.00;99027.53;5022069;28;20049;-82
2021/05/13 05:13:44;;;;;;;6.38;2.10;;;;;;;8.19;100.00;99026.84;5011097;28;20057;-82
2021/05/13 05:16:47;;;;;;;8.32;1.98;;;;;;;8.29;100.00;99035.88;5018088;28;20530;-82
2021/05/13 05:19:50;;;;;;;5.57;1.50;;;;;;;8.35;100.00;99031.97;5017451;28;20411;-82
2021/05/13 05:22:54;;;;;;;10.48;1.55;;;;;;;8.45;100.00;99035.38;5011212;28;20052;-77
2021/05/13 05:25:58;;;;;;;6.00;1.33;;;;;;;8.55;100.00;99039.56;5010729;28;20056;-77
2021/05/13 05:29:02;;;;;;;1.90;1.73;;;;;;;8.60;100.00;99030.56;5024185;28;20053;-77
2021/05/13 05:32:06;;;;;;;3.63;1.10;;;;;;;8.67;100.00;99030.16;5041063;28;20056;-77
2021/05/13 05:35:10;;;;;;;6.43;1.05;;;;;;;8.75;100.00;99031.28;5029616;28;20072;-77
2021/05/13 05:38:13;;;;;;;6.93;1.38;;;;;;;8.83;100.00;99026.88;5030224;28;20060;-77
2021/05/13 05:41:16;;;;;;;13.98;2.20;;;;;;;8.96;100.00;99032.09;5029376;28;20053;-77
2021/05/13 05:44:20;;;;;;;5.60;2.28;;;;;;;9.04;100.00;99019.31;5029121;28;20099;-78
2021/05/13 05:47:23;;;;;;;4.45;0.98;;;;;;;9.18;100.00;99034.38;5029773;28;20052;-81
2021/05/13 05:50:31;;;;;;;0.90;0.90;;;;;;;9.26;100.00;99024.38;5030653;28;20052;-80
2021/05/13 05:53:34;;;;;;;8.05;2.35;;;;;;;9.37;100.00;99024.53;5030764;28;20064;-77
2021/05/13 05:56:38;;;;;;;6.78;2.38;;;;;;;9.45;100.00;99026.38;5030242;28;20442;-78
2021/05/13 05:59:41;;;;;;;5.53;2.63;;;;;;;9.57;100.00;99036.38;5030246;28;20052;-78
2021/05/13 06:02:46;;;;;;;4.05;1.50;;;;;;;9.68;100.00;99038.53;5030371;28;20052;-78
2021/05/13 06:05:49;;;;;;;7.88;2.15;;;;;;;9.79;100.00;99038.63;5030658;28;20044;-77
2021/05/13 06:08:53;;;;;;;5.03;2.47;;;;;;;9.89;100.00;99037.22;5029455;28;20072;-78
2021/05/13 06:11:57;;;;;;;2.50;1.65;;;;;;;9.95;100.00;99038.03;5030118;28;20061;-81
2021/05/13 06:15:01;;;;;;;7.53;2.42;;;;;;;9.97;100.00;99035.53;5030259;28;20574;-79
2021/05/13 06:18:05;;;;;;;3.50;1.50;;;;;;;10.00;100.00;99023.44;5040899;28;20057;-81
2021/05/13 06:21:09;;;;;;;3.75;1.65;;;;;;;10.06;100.00;99031.81;5029872;28;20427;-80
2021/05/13 06:24:12;;;;;;;3.45;1.48;;;;;;;10.06;100.00;99032.59;5029642;28;20056;-77
2021/05/13 06:27:16;;;;;;;1.58;1.10;;;;;;;10.08;100.00;99023.75;5033947;28;20052;-80
2021/05/13 06:30:20;;;;;;;2.00;0.68;;;;;;;10.09;100.00;99028.78;5033099;28;20064;-81
2021/05/13 06:33:24;;;;;;;3.95;1.65;;;;;;;10.13;100.00;99028.63;5033835;28;20073;-80
2021/05/13 06:36:27;;;;;;;5.43;1.40;;;;;;;10.14;100.00;99028.13;5032364;28;20065;-80
2021/05/13 06:39:32;;;;;;;7.40;0.88;;;;;;;10.13;100.00;99029.41;5033792;28;20049;-80
2021/05/13 06:42:36;;;;;;;5.90;2.22;;;;;;;10.18;100.00;99025.13;5033061;28;20076;-80
2021/05/13 06:45:40;;;;;;;1.92;1.05;;;;;;;10.17;100.00;99026.38;5032266;28;20052;-80
2021/05/13 06:48:44;;;;;;;3.22;1.00;;;;;;;10.20;100.00;99030.97;5031900;28;20071;-81
2021/05/13 06:51:48;;;;;;;7.15;2.13;;;;;;;10.25;100.00;99028.22;5032744;28;20057;-80
2021/05/13 06:54:51;;;;;;;8.77;1.58;;;;;;;10.29;100.00;99025.97;5032967;28;20052;-81
2021/05/13 06:57:55;;;;;;;10.98;0.80;;;;;;;10.36;100.00;99039.44;5032244;28;20072;-80
2021/05/13 07:00:59;;;;;;;3.40;1.15;;;;;;;10.40;100.00;99042.78;5032456;28;20057;-81
2021/05/13 07:04:05;;;;;;;1.67;0.75;;;;;;;10.42;100.00;99029.13;5031699;28;20072;-81
2021/05/13 07:07:08;;;;;;;6.57;2.17;;;;;;;10.44;100.00;99034.94;5032578;28;20423;-81
2021/05/13 07:10:12;;;;;;;2.47;1.10;;;;;;;10.49;100.00;99033.47;5043208;28;20073;-81
2021/05/13 07:13:16;;;;;;;1.23;0.70;;;;;;;10.52;100.00;99033.25;5032520;28;20415;-80
2021/05/13 07:16:19;;;;;;;1.52;0.70;;;;;;;10.57;100.00;99040.88;5030731;28;20422;-80
2021/05/13 07:19:22;;;;;;;5.28;1.83;;;;;;;10.59;100.00;99043.91;5032475;28;20053;-82
2021/05/13 07:22:26;;;;;;;0.70;0.47;;;;;;;10.57;100.00;99052.00;5032549;28;20053;-77
2021/05/13 07:25:31;;;;;;;5.90;1.40;;;;;;;10.55;100.00;99048.97;5031438;28;20068;-77
2021/05/13 07:28:35;;;;;;;1.48;1.02;;;;;;;10.52;100.00;99052.75;5031171;28;20056;-77
2021/05/13 07:31:39;;;;;;;2.47;1.73;;;;;;;10.48;100.00;99057.75;5031719;28;20061;-78
2021/05/13 07:34:43;;;;;;;4.30;1.92;;;;;;;10.43;100.00;99058.50;5032111;28;20404;-79
2021/05/13 07:37:47;;;;;;;1.67;0.88;;;;;;;10.39;100.00;99062.75;5031531;28;20061;-77
2021/05/13 07:40:51;;;;;;;4.90;1.52;;;;;;;10.36;100.00;99063.72;5031977;28;20060;-77
2021/05/13 07:43:57;;;;;;;2.47;1.55;;;;;;;10.36;100.00;99064.50;5032307;28;20072;-78
2021/05/13 07:47:00;;;;;;;2.38;1.27;;;;;;;10.42;100.00;99070.88;5032333;28;20056;-78
2021/05/13 07:50:09;;;;;;;2.78;1.77;;;;;;;10.47;100.00;99075.72;5032307;28;20061;-81
2021/05/13 07:53:13;;;;;;;5.25;2.13;;;;;;;10.50;100.00;99069.16;5031988;28;20519;-81
2021/05/13 07:56:17;;;;;;;6.05;1.63;;;;;;;10.57;100.00;99079.09;5031445;28;20124;-79
2021/05/13 07:59:20;;;;;;;4.72;1.05;;;;;;;10.59;100.00;99082.13;5032052;28;20052;-80
2021/05/13 08:02:24;;;;;;;4.47;1.73;;;;;;;10.60;100.00;99078.88;5031691;28;20053;-80
2021/05/13 08:05:28;;;;;;;12.35;1.92;;;;;;;10.61;100.00;99080.38;5032393;28;20419;-80
2021/05/13 08:08:31;;;;;;;3.20;2.30;;;;;;;10.64;100.00;99090.53;5031634;28;20056;-80
2021/05/13 08:11:35;;;;;;;4.10;1.63;;;;;;;10.78;100.00;99088.13;5031648;28;20060;-81
2021/05/13 08:14:38;;;;;;;13.55;2.90;;;;;;;10.93;100.00;99083.91;5043489;28;20060;-81
2021/05/13 08:17:43;;;;;;;5.68;2.13;;;;;;;11.04;100.00;99089.56;5031489;28;20061;-77
2021/05/13 08:20:46;;;;;;;2.78;1.45;;;;;;;11.06;100.00;99092.63;5031325;28;20056;-78
2021/05/13 08:23:50;;;;;;;9.98;2.10;;;;;;;11.08;100.00;99090.09;5031371;28;20049;-81
2021/05/13 08:26:54;;;;;;;1.95;0.98;;;;;;;11.16;100.00;99084.81;5031433;28;20526;-80
2021/05/13 08:29:58;;;;;;;8.95;3.17;;;;;;;11.30;100.00;99090.19;5031488;28;20072;-80
2021/05/13 08:33:03;;;;;;;6.28;1.77;;;;;;;11.46;100.00;99069.25;5030974;28;20052;-80
2021/05/13 08:36:07;;;;;;;3.35;1.83;;;;;;;11.66;100.00;99077.44;5030181;28;20057;-80
2021/05/13 08:39:11;;;;;;;3.67;1.45;;;;;;;11.91;100.00;99079.31;5030405;28;20068;-81
2021/05/13 08:42:15;;;;;;;1.73;1.30;;;;;;;12.13;100.00;99082.16;5031130;28;20056;-81
2021/05/13 08:45:18;;;;;;;9.23;1.95;;;;;;;12.37;100.00;99078.13;5030916;28;20064;-81
2021/05/13 08:48:27;;;;;;;7.20;1.92;;;;;;;12.54;100.00;99076.13;5029479;28;20060;-77
2021/05/13 08:51:32;;;;;;;4.82;1.60;;;;;;;12.64;100.00;99080.16;5031046;28;20056;-77
2021/05/13 08:54:36;;;;;;;9.50;1.98;;;;;;;12.62;100.00;99071.53;5031086;28;20056;-82
2021/05/13 08:57:40;;;;;;;3.50;1.38;;;;;;;12.59;100.00;99066.97;5030995;28;20442;-78
2021/05/13 09:01:01;;;;;;;1.60;0.95;;;;;;;12.50;100.00;99072.78;5029888;28;20048;-78
2021/05/13 09:04:05;;;;;;;10.40;1.08;;;;;;;12.47;100.00;99071.81;5041421;28;20048;-78
2021/05/13 09:07:16;;;;;;;2.95;1.20;;;;;;;12.51;100.00;99065.94;5030667;28;20053;-77
2021/05/13 09:10:22;;;;;;;6.60;2.90;;;;;;;12.55;100.00;99074.84;5029404;28;20549;-78
2021/05/13 09:13:29;;;;;;;13.00;4.15;;;;;;;12.65;100.00;99076.09;5030860;28;20065;-78
2021/05/13 09:16:35;;;;;;;8.77;3.85;;;;;;;12.76;100.00;99076.09;5030592;28;20129;-77
2021/05/13 09:19:39;;;;;;;9.00;2.47;;;;;;;12.85;100.00;99073.03;5029519;28;20097;-78
2021/05/13 09:22:43;;;;;;;14.23;2.55;;;;;;;12.89;100.00;99084.72;5030224;28;20128;-77
2021/05/13 09:26:04;;;;;;;4.13;2.00;;;;;;;12.90;100.00;99077.88;5030817;28;20064;-77
2021/05/13 09:29:12;;;;;;;6.53;1.20;;;;;;;13.02;100.00;99068.19;5030604;28;20056;-77
2021/05/13 09:32:20;;;;;;;7.70;1.95;;;;;;;13.16;100.00;99078.34;5030820;28;20057;-77
2021/05/13 09:35:31;;;;;;;4.32;1.48;;;;;;;13.34;100.00;99080.56;5029826;28;20534;-77
2021/05/13 09:38:35;;;;;;;7.28;1.60;;;;;;;13.55;100.00;99079.00;5030338;28;20057;-77
2021/05/13 09:41:39;;;;;;;2.05;0.73;;;;;;;13.76;100.00;99073.81;5029828;28;20546;-78
2021/05/13 09:44:43;;;;;;;2.80;0.88;;;;;;;13.95;100.00;99076.75;5030178;28;20052;-81
2021/05/13 09:47:47;;;;;;;2.60;1.15;;;;;;;14.18;100.00;99075.34;5029979;28;20057;-82
2021/05/13 09:51:18;;;;;;;1.30;1.20;;;;;;;14.35;100.00;99070.44;5030115;28;20053;-81
2021/05/13 09:54:21;;;;;;;8.73;0.93;;;;;;;14.41;100.00;99071.13;5029258;28;20061;-81
2021/05/13 09:57:28;;;;;;;3.55;0.80;;;;;;;14.49;100.00;99074.91;5029844;28;20052;-78
2021/05/13 10:00:48;;;;;;;1.88;0.40;;;;;;;14.55;100.00;99072.84;5029998;28;20053;-77
2021/05/13 10:03:55;;;;;;;4.20;1.25;;;;;;;14.64;100.00;99075.28;5029861;28;20415;-78
2021/05/13 10:06:59;;;;;;;2.00;0.70;;;;;;;14.79;100.00;99067.25;5030136;28;20060;-78
2021/05/13 10:10:02;;;;;;;0.75;0.22;;;;;;;15.00;100.00;99067.56;5029755;28;20531;-78
2021/05/13 10:13:07;;;;;;;0.82;0.40;;;;;;;15.17;100.00;99062.56;5029392;28;20534;-78
2021/05/13 10:16:12;;;;;;;1.40;0.85;;;;;;;15.32;100.00;99054.47;5029641;28;20049;-79
2021/05/13 10:19:43;;;;;;;2.90;0.70;;;;;;;15.57;100.00;99058.06;5029689;28;20061;-78
2021/05/13 10:22:47;;;;;;;2.03;0.67;;;;;;;15.86;100.00;99057.16;5029197;28;20068;-81
2021/05/13 10:25:51;;;;;;;6.60;0.70;;;;;;;16.00;100.00;99066.41;5029507;28;20407;-83
2021/05/13 10:28:54;;;;;;;2.58;0.60;;;;;;;15.98;100.00;99071.81;5029702;28;20052;-83
2021/05/13 10:32:01;;;;;;;5.70;1.02;;;;;;;15.91;100.00;99071.13;5029514;28;20061;-82
2021/05/13 10:35:07;;;;;;;1.70;0.50;;;;;;;15.95;100.00;99070.81;5028628;28;20526;-82
2021/05/13 10:38:13;;;;;;;0.70;0.28;;;;;;;16.04;100.00;99064.81;5029310;28;20542;-82
2021/05/13 10:41:29;;;;;;;3.92;0.32;;;;;;;16.13;100.00;99063.66;5028587;28;20176;-81
2021/05/13 10:44:34;;;;;;;0.85;0.38;;;;;;;16.13;100.00;99064.44;5029795;28;20171;-81
2021/05/13 10:47:40;;;;;;;0.80;0.50;;;;;;;16.31;100.00;99051.63;5029398;28;20056;-82
2021/05/13 10:51:03;;;;;;;2.38;0.43;;;;;;;16.50;100.00;99053.13;5029541;28;20399;-82
2021/05/13 10:54:07;;;;;;;5.97;0.55;;;;;;;16.60;100.00;99059.13;5028791;28;20061;-78
2021/05/13 10:57:19;;;;;;;0.63;0.13;;;;;;;16.68;100.00;99055.16;5029021;28;20061;-78
2021/05/13 11:00:23;;;;;;;7.88;1.00;;;;;;;16.85;100.00;99054.84;5028265;28;20060;-80
2021/05/13 11:03:31;;;;;;;0.25;0.20;;;;;;;16.68;100.00;99057.97;5029440;28;20526;-83
2021/05/13 11:06:45;;;;;;;1.23;0.10;;;;;;;16.42;100.00;99057.84;5029302;28;20057;-82
2021/05/13 11:09:49;;;;;;;0.63;0.43;;;;;;;16.27;100.00;99051.19;5029199;28;20049;-82
2021/05/13 11:13:09;;;;;;;0.88;0.13;;;;;;;16.11;100.00;99043.78;5032801;28;20064;-82
2021/05/13 11:16:48;;;;;;;2.42;0.32;;;;;;;15.95;100.00;99051.16;5032120;28;20407;-83
2021/05/13 11:20:29;;;;;;;3.30;0.55;;;;;;;15.94;100.00;99046.81;5022278;28;20060;-83
2021/05/13 11:23:32;;;;;;;7.88;0.88;;;;;;;16.09;100.00;99052.72;5031212;28;20107;-83
2021/05/13 11:26:36;;;;;;;7.47;0.60;;;;;;;16.33;100.00;99043.44;5032948;28;20511;-84
2021/05/13 11:29:44;;;;;;;2.63;0.63;;;;;;;16.52;100.00;99052.63;5031957;28;20073;-82
2021/05/13 11:32:48;;;;;;;0.40;0.20;;;;;;;16.88;100.00;99048.16;5032456;28;20397;-83
2021/05/13 11:36:02;;;;;;;1.60;0.55;;;;;;;16.95;100.00;99049.59;5032346;28;20052;-83
2021/05/13 11:39:10;;;;;;;3.55;0.25;;;;;;;16.87;100.00;99051.53;5031403;28;20076;-83
2021/05/13 11:42:20;;;;;;;1.60;0.70;;;;;;;16.73;100.00;99047.16;5032466;28;20411;-82
2021/05/13 11:45:24;;;;;;;3.97;0.88;;;;;;;16.64;100.00;99042.69;5029242;28;20045;-83
2021/05/13 11:48:33;;;;;;;3.63;0.85;;;;;;;16.53;100.00;99045.69;5032353;28;20416;-83
2021/05/13 11:51:38;;;;;;;2.83;0.57;;;;;;;16.53;100.00;99045.69;5032448;28;20065;-79
2021/05/13 11:54:41;;;;;;;1.42;0.57;;;;;;;16.65;100.00;99035.78;5031934;28;20064;-79
2021/05/13 11:57:48;;;;;;;4.28;0.77;;;;;;;16.85;100.00;99037.25;5030891;28;20057;-77
2021/05/13 12:00:52;;;;;;;1.27;0.40;;;;;;;17.09;100.00;99031.41;5032181;28;20048;-76
2021/05/13 12:03:55;;;;;;;16.45;1.58;;;;;;;17.26;100.00;99032.59;5032136;28;20050;-76
2021/05/13 12:07:01;;;;;;;1.38;0.50;;;;;;;17.28;100.00;99034.91;5032397;28;20415;-76
2021/05/13 12:10:06;;;;;;;2.63;0.70;;;;;;;16.89;100.00;99027.16;5031073;28;20049;-76
2021/05/13 12:13:10;;;;;;;0.93;0.43;;;;;;;16.46;100.00;99035.03;5031470;28;20060;-76
2021/05/13 12:16:14;;;;;;;2.92;0.63;;;;;;;16.17;100.00;99036.03;5031690;28;20049;-76
2021/05/13 12:19:18;;;;;;;5.72;0.50;;;;;;;16.06;100.00;99028.53;5031101;28;20056;-76
2021/05/13 12:22:24;;;;;;;0.90;0.28;;;;;;;16.28;100.00;99030.25;5030226;28;20068;-76
2021/05/13 12:25:29;;;;;;;2.22;0.60;;;;;;;16.89;100.00;99012.38;5031311;28;20407;-76
2021/05/13 12:28:32;;;;;;;2.45;0.70;;;;;;;17.11;100.00;99020.38;5030454;28;20049;-75
2021/05/13 12:31:39;;;;;;;3.20;0.10;;;;;;;16.76;100.00;99029.22;5031323;28;20154;-76
2021/05/13 12:34:42;;;;;;;3.40;0.80;;;;;;;16.28;100.00;99019.78;5031214;28;20057;-76
2021/05/13 12:37:46;;;;;;;4.72;0.40;;;;;;;15.92;100.00;99026.94;5030908;28;20064;-75
2021/05/13 12:41:06;;;;;;;2.28;0.22;;;;;;;15.60;100.00;99023.28;5030930;28;20538;-75
2021/05/13 12:44:16;;;;;;;0.37;0.20;;;;;;;15.39;100.00;99016.66;5031393;28;20049;-75
2021/05/13 12:47:25;;;;;;;4.20;0.73;;;;;;;15.40;100.00;99021.00;5030682;28;20056;-75
2021/05/13 12:50:30;;;;;;;1.48;0.22;;;;;;;15.51;100.00;99018.06;5031298;28;20056;-75
2021/05/13 12:53:33;;;;;;;1.35;0.35;;;;;;;16.01;100.00;99011.75;5030260;28;20052;-75
2021/05/13 12:56:37;;;;;;;4.68;0.28;;;;;;;16.52;100.00;99019.63;5030985;28;20076;-76
2021/05/13 13:00:01;;;;;;;1.30;0.43;;;;;;;16.88;100.00;99014.41;5031129;28;20076;-74
2021/05/13 13:03:15;;;;;;;5.28;0.20;;;;;;;17.08;100.00;99010.97;5030930;28;20053;-75
2021/05/13 13:06:18;;;;;;;0.20;0.10;;;;;;;17.31;100.00;99006.41;5030160;28;20064;-75
2021/05/13 13:09:33;;;;;;;1.23;0.32;;;;;;;17.53;100.00;99010.84;5030737;28;20057;-75
2021/05/13 13:12:36;;;;;;;0.63;0.17;;;;;;;17.72;100.00;99011.47;5030790;28;20056;-75
2021/05/13 13:15:45;;;;;;;1.83;0.35;;;;;;;17.68;100.00;99016.69;5030537;28;20061;-75
2021/05/13 13:19:07;;;;;;;2.85;0.32;;;;;;;17.68;100.00;99004.66;5030437;28;20124;-74
2021/05/13 13:22:10;;;;;;;;;;;;;;;17.90;100.00;99004.16;5030864;28;20545;-75
2021/05/13 13:25:16;;;;;;;0.30;0.17;;;;;;;18.22;100.00;99006.75;5030484;28;19917;-74
2021/05/13 13:28:20;;;;;;;1.55;0.40;;;;;;;18.31;100.00;99006.28;5029921;28;20558;-75
2021/05/13 13:31:26;;;;;;;2.97;0.57;;;;;;;18.08;100.00;98991.97;5030097;28;20060;-75
2021/05/13 13:34:36;;;;;;;2.92;0.20;;;;;;;18.22;100.00;98995.47;5029173;28;20531;-76
2021/05/13 13:37:40;;;;;;;1.60;0.20;;;;;;;18.21;100.00;98989.09;5030317;28;20053;-76
2021/05/13 13:40:46;;;;;;;2.67;0.17;;;;;;;18.33;98.63;99000.84;5029868;28;20064;-75
2021/05/13 13:43:50;;;;;;;0.65;0.30;;;;;;;18.60;100.00;98997.34;5030165;28;20060;-75
2021/05/13 13:46:53;;;;;;;0.68;0.13;;;;;;;18.81;100.00;98997.34;5030130;28;20053;-76
2021/05/13 13:49:57;;;;;;;1.02;0.30;;;;;;;18.78;100.00;99002.00;5030319;28;20547;-76
2021/05/13 13:53:01;;;;;;;0.25;0.00;;;;;;;18.63;99.75;98990.63;5029722;28;20057;-76
2021/05/13 13:56:05;;;;;;;5.82;0.10;;;;;;;18.40;100.00;98992.47;5029662;28;20064;-76
2021/05/13 13:59:08;;;;;;;0.40;0.10;;;;;;;18.17;100.00;98985.84;5029805;28;20052;-77
2021/05/13 14:02:12;;;;;;;2.17;0.45;;;;;;;18.16;100.00;98993.56;5029881;28;20112;-76
2021/05/13 14:05:17;;;;;;;1.75;0.40;;;;;;;18.17;100.00;98994.28;5030509;28;20052;-75
2021/05/13 14:08:22;;;;;;;8.25;0.60;;;;;;;17.86;100.00;99003.75;5029084;28;20056;-75
2021/05/13 14:11:26;;;;;;;10.15;0.75;;;;;;;17.45;100.00;99007.16;5029730;28;20077;-76
2021/05/13 14:14:29;;;;;;;1.23;0.20;;;;;;;17.32;100.00;99010.00;5029685;28;20064;-75
2021/05/13 14:17:33;;;;;;;1.35;0.40;;;;;;;17.13;100.00;99009.34;5046372;28;20059;-75
2021/05/13 14:20:38;;;;;;;3.45;0.50;;;;;;;17.04;100.00;99001.34;5048272;28;20063;-75
2021/05/13 14:23:42;;;;;;;1.85;0.47;;;;;;;17.05;100.00;98995.16;5049847;28;20052;-77
2021/05/13 14:26:45;;;;;;;1.85;0.43;;;;;;;17.27;100.00;98991.16;5020452;28;20067;-76
2021/05/13 14:29:49;;;;;;;5.15;0.30;;;;;;;17.58;100.00;98984.66;5044499;28;20422;-78
2021/05/13 14:32:52;;;;;;;7.10;0.50;;;;;;;17.86;100.00;98996.06;5036193;28;20064;-77
2021/05/13 14:35:58;;;;;;;1.85;0.35;;;;;;;17.99;100.00;98984.75;5029900;28;20052;-79